Time;durP1;ratioP1;P1;durP2;ratioP2;P2;SDS_P1;SDS_P2;PMS_P1;PMS_P2;Temp;Humidity;BMP_temperature;BMP_pressure;BME280_temperature;BME280_humidity;BME280_pressure;Samples;Min_cycle;Max_cycle;Signal;HPM_P1;HPM_P2
2021/09/05 00:01:36;;;;;;;15.27;6.10;;;;;;;;;;4903585;29;20047;-89
2021/09/05 00:04:02;;;;;;;9.48;5.80;;;;;;;;;;4903368;29;20066;-88
2021/09/05 00:06:30;;;;;;;9.32;5.20;;;;;;;;;;4903582;29;20060;-87
2021/09/05 00:08:56;;;;;;;11.68;6.57;;;;;;;;;;4904745;29;20024;-87
2021/09/05 00:11:22;;;;;;;13.63;7.47;;;;;;;;;;4903812;29;20036;-90
2021/09/05 00:13:49;;;;;;;13.35;6.43;;;;;;;;;;4903150;29;20043;-89
2021/09/05 00:16:15;;;;;;;12.90;6.47;;;;;;;;;;4903140;29;20485;-87
2021/09/05 00:18:42;;;;;;;16.13;6.03;;;;;;;;;;4903688;29;20028;-88
2021/09/05 00:21:08;;;;;;;13.88;6.68;;;;;;;;;;4903155;29;20392;-87
2021/09/05 00:23:34;;;;;;;12.52;5.32;;;;;;;;;;4902766;29;20032;-90
2021/09/05 00:26:00;;;;;;;15.18;6.45;;;;;;;;;;4902755;29;20028;-87
2021/09/05 00:28:27;;;;;;;11.27;5.18;;;;;;;;;;4904288;29;20036;-87
2021/09/05 00:30:53;;;;;;;10.98;5.32;;;;;;;;;;4902967;29;20028;-90
2021/09/05 00:33:19;;;;;;;12.20;5.10;;;;;;;;;;4903710;29;20110;-90
2021/09/05 00:35:45;;;;;;;14.65;6.03;;;;;;;;;;4902306;29;20053;-87
2021/09/05 00:38:11;;;;;;;10.60;5.20;;;;;;;;;;4903109;29;20039;-90
2021/09/05 00:40:38;;;;;;;20.02;9.00;;;;;;;;;;4902528;29;20048;-89
2021/09/05 00:43:04;;;;;;;17.85;8.50;;;;;;;;;;4905663;29;20059;-90
2021/09/05 00:45:30;;;;;;;19.33;8.45;;;;;;;;;;4905732;29;20059;-89
2021/09/05 00:47:56;;;;;;;13.80;7.00;;;;;;;;;;4903891;29;20040;-91
2021/09/05 00:50:22;;;;;;;10.63;6.07;;;;;;;;;;4903024;29;20056;-90
2021/09/05 00:52:49;;;;;;;9.52;5.70;;;;;;;;;;4903802;29;20032;-90
2021/09/05 00:55:15;;;;;;;8.32;5.07;;;;;;;;;;4904371;29;20107;-90
2021/09/05 00:57:44;;;;;;;10.40;5.65;;;;;;;;;;4907116;29;20035;-89
2021/09/05 01:00:11;;;;;;;13.07;5.40;;;;;;;;;;4909528;29;20047;-87
2021/09/05 01:02:37;;;;;;;9.70;5.18;;;;;;;;;;4908804;29;20028;-89
2021/09/05 01:05:03;;;;;;;11.65;5.43;;;;;;;;;;4903486;29;20035;-87
2021/09/05 01:07:31;;;;;;;13.95;6.35;;;;;;;;;;4902201;29;20426;-87
2021/09/05 01:09:59;;;;;;;11.52;5.05;;;;;;;;;;4903050;29;20032;-87
2021/09/05 01:12:25;;;;;;;11.18;6.70;;;;;;;;;;4902949;29;20044;-89
2021/09/05 01:14:52;;;;;;;11.20;5.18;;;;;;;;;;4901926;29;20032;-87
2021/09/05 01:17:18;;;;;;;12.60;5.65;;;;;;;;;;4902680;29;20032;-91
2021/09/05 01:19:45;;;;;;;9.85;5.25;;;;;;;;;;4902361;29;20032;-87
2021/09/05 01:22:11;;;;;;;10.63;5.05;;;;;;;;;;4902281;29;20053;-91
2021/09/05 01:24:37;;;;;;;11.60;5.75;;;;;;;;;;4902125;29;20070;-89
2021/09/05 01:27:03;;;;;;;13.52;6.70;;;;;;;;;;4904055;29;20028;-90
2021/09/05 01:29:30;;;;;;;12.60;6.97;;;;;;;;;;4902687;29;20039;-87
2021/09/05 01:31:56;;;;;;;12.90;6.50;;;;;;;;;;4902441;29;20028;-89
2021/09/05 01:34:23;;;;;;;11.77;5.90;;;;;;;;;;4902143;29;20518;-87
2021/09/05 01:36:50;;;;;;;14.95;6.22;;;;;;;;;;4903702;29;20072;-90
2021/09/05 01:39:17;;;;;;;11.35;6.47;;;;;;;;;;4903089;29;20517;-91
2021/09/05 01:41:44;;;;;;;13.35;6.07;;;;;;;;;;4903459;29;20024;-90
2021/09/05 01:44:14;;;;;;;12.18;5.47;;;;;;;;;;4903334;29;20032;-90
2021/09/05 01:46:43;;;;;;;9.98;5.15;;;;;;;;;;4903286;29;20039;-90
2021/09/05 01:49:10;;;;;;;15.90;5.88;;;;;;;;;;4904398;29;20028;-87
2021/09/05 01:51:36;;;;;;;10.00;5.20;;;;;;;;;;4902787;29;20036;-89
2021/09/05 01:54:03;;;;;;;10.75;6.45;;;;;;;;;;4905264;29;20040;-89
2021/09/05 01:56:29;;;;;;;10.07;5.13;;;;;;;;;;4906409;29;20024;-91
2021/09/05 01:58:57;;;;;;;10.40;5.65;;;;;;;;;;4915434;29;20032;-87
2021/09/05 02:01:27;;;;;;;10.68;5.78;;;;;;;;;;4913105;29;20035;-87
2021/09/05 02:03:53;;;;;;;11.02;5.80;;;;;;;;;;4902306;29;20101;-89
2021/09/05 02:06:19;;;;;;;16.20;6.57;;;;;;;;;;4901369;29;20115;-86
2021/09/05 02:08:46;;;;;;;12.10;6.47;;;;;;;;;;4902034;29;20032;-87
2021/09/05 02:11:13;;;;;;;14.38;7.30;;;;;;;;;;4902367;29;20032;-90
2021/09/05 02:13:39;;;;;;;15.43;6.78;;;;;;;;;;4902317;29;20043;-89
2021/09/05 02:16:05;;;;;;;15.00;7.22;;;;;;;;;;4903094;29;20095;-90
2021/09/05 02:18:31;;;;;;;13.30;6.22;;;;;;;;;;4904926;29;20035;-91
2021/09/05 02:20:58;;;;;;;10.23;5.80;;;;;;;;;;4902940;29;20466;-87
2021/09/05 02:23:24;;;;;;;12.18;6.05;;;;;;;;;;4902893;29;20060;-90
2021/09/05 02:25:50;;;;;;;10.85;5.57;;;;;;;;;;4903058;29;20024;-88
2021/09/05 02:28:17;;;;;;;11.00;5.22;;;;;;;;;;4904046;29;20032;-90
2021/09/05 02:30:43;;;;;;;10.52;6.07;;;;;;;;;;4905163;29;20043;-88
2021/09/05 02:33:09;;;;;;;11.23;5.28;;;;;;;;;;4902689;29;20032;-90
2021/09/05 02:35:35;;;;;;;9.50;5.18;;;;;;;;;;4902151;29;20024;-90
2021/09/05 02:38:01;;;;;;;9.45;5.65;;;;;;;;;;4902810;29;20445;-90
2021/09/05 02:40:27;;;;;;;11.15;5.13;;;;;;;;;;4905526;29;20040;-89
2021/09/05 02:42:53;;;;;;;10.90;6.00;;;;;;;;;;4901242;29;20048;-91
2021/09/05 02:45:20;;;;;;;10.30;5.45;;;;;;;;;;4904024;29;20489;-89
2021/09/05 02:47:46;;;;;;;10.65;5.47;;;;;;;;;;4908464;29;20028;-87
2021/09/05 02:50:12;;;;;;;10.00;5.78;;;;;;;;;;4905447;29;20028;-89
2021/09/05 02:52:38;;;;;;;11.63;6.47;;;;;;;;;;4908011;29;20040;-91
2021/09/05 02:55:06;;;;;;;20.35;7.88;;;;;;;;;;4905187;29;20035;-91
2021/09/05 02:57:32;;;;;;;18.98;7.47;;;;;;;;;;4899944;29;20120;-91
2021/09/05 02:59:58;;;;;;;11.85;6.95;;;;;;;;;;4904804;29;20481;-87
2021/09/05 03:02:24;;;;;;;14.88;7.00;;;;;;;;;;4905822;29;20056;-91
2021/09/05 03:04:51;;;;;;;11.20;6.00;;;;;;;;;;4905078;29;20115;-87
2021/09/05 03:07:17;;;;;;;11.38;5.57;;;;;;;;;;4905961;29;20024;-88
2021/09/05 03:09:43;;;;;;;11.27;5.60;;;;;;;;;;4909021;29;20533;-90
2021/09/05 03:12:09;;;;;;;8.82;5.32;;;;;;;;;;4904446;29;20052;-89
2021/09/05 03:14:35;;;;;;;16.45;7.20;;;;;;;;;;4905004;29;20115;-90
2021/09/05 03:17:01;;;;;;;20.08;6.35;;;;;;;;;;4906758;29;20481;-90
2021/09/05 03:19:27;;;;;;;14.68;6.32;;;;;;;;;;4908188;29;20079;-87
2021/09/05 03:21:54;;;;;;;16.60;6.53;;;;;;;;;;4903824;29;20028;-90
2021/09/05 03:24:20;;;;;;;12.95;5.53;;;;;;;;;;4904241;29;20024;-88
2021/09/05 03:26:46;;;;;;;10.60;5.95;;;;;;;;;;4904009;29;20207;-89
2021/09/05 03:29:12;;;;;;;11.32;5.60;;;;;;;;;;4903816;29;20028;-91
2021/09/05 03:31:38;;;;;;;11.50;5.22;;;;;;;;;;4903721;29;20076;-90
2021/09/05 03:34:04;;;;;;;12.55;5.97;;;;;;;;;;4903757;29;20497;-88
2021/09/05 03:36:31;;;;;;;11.90;6.05;;;;;;;;;;4905228;29;20056;-89
2021/09/05 03:38:57;;;;;;;11.57;5.85;;;;;;;;;;4905214;29;20040;-89
2021/09/05 03:41:23;;;;;;;9.63;5.28;;;;;;;;;;4905007;29;20020;-87
2021/09/05 03:43:50;;;;;;;11.98;6.18;;;;;;;;;;4905094;29;20063;-88
2021/09/05 03:46:16;;;;;;;12.27;6.40;;;;;;;;;;4904029;29;20103;-91
2021/09/05 03:48:42;;;;;;;10.38;5.88;;;;;;;;;;4903299;29;20020;-90
2021/09/05 03:51:09;;;;;;;10.52;5.50;;;;;;;;;;4903343;29;20496;-88
2021/09/05 03:53:35;;;;;;;11.05;6.28;;;;;;;;;;4904476;29;20071;-90
2021/09/05 03:56:03;;;;;;;11.85;6.20;;;;;;;;;;4904670;29;20052;-89
2021/09/05 03:58:29;;;;;;;11.52;6.05;;;;;;;;;;4904008;29;20035;-87
2021/09/05 04:00:55;;;;;;;16.98;7.50;;;;;;;;;;4904066;29;20091;-90
2021/09/05 04:03:24;;;;;;;24.83;8.82;;;;;;;;;;4902778;29;20447;-91
2021/09/05 04:05:50;;;;;;;17.77;7.82;;;;;;;;;;4903074;29;20028;-90
2021/09/05 04:08:17;;;;;;;19.25;7.65;;;;;;;;;;4907045;29;20036;-87
2021/09/05 04:10:43;;;;;;;16.63;7.35;;;;;;;;;;4902999;29;20024;-87
2021/09/05 04:13:14;;;;;;;12.85;6.72;;;;;;;;;;4903329;29;20115;-91
2021/09/05 04:15:41;;;;;;;16.05;8.05;;;;;;;;;;4902820;29;20028;-90
2021/09/05 04:18:08;;;;;;;15.05;6.93;;;;;;;;;;4902929;29;20028;-90
2021/09/05 04:20:34;;;;;;;23.48;8.88;;;;;;;;;;4902541;29;20024;-91
2021/09/05 04:23:00;;;;;;;13.45;7.13;;;;;;;;;;4902798;29;20060;-91
2021/09/05 04:25:26;;;;;;;17.35;6.97;;;;;;;;;;4902811;29;20126;-91
2021/09/05 04:27:52;;;;;;;14.55;7.55;;;;;;;;;;4903108;29;20087;-91
2021/09/05 04:30:18;;;;;;;12.98;7.10;;;;;;;;;;4904485;29;20032;-88
2021/09/05 04:32:44;;;;;;;18.63;7.82;;;;;;;;;;4888044;29;20478;-89
2021/09/05 04:35:11;;;;;;;15.52;7.93;;;;;;;;;;4902824;29;20032;-89
2021/09/05 04:37:39;;;;;;;12.82;7.13;;;;;;;;;;4902512;29;20040;-90
2021/09/05 04:40:05;;;;;;;12.45;7.10;;;;;;;;;;4903186;29;20100;-90
2021/09/05 04:42:33;;;;;;;20.05;9.30;;;;;;;;;;4902527;29;20059;-90
2021/09/05 04:45:00;;;;;;;13.85;7.57;;;;;;;;;;4904083;29;20028;-91
2021/09/05 04:47:26;;;;;;;13.25;7.20;;;;;;;;;;4905996;29;20036;-87
2021/09/05 04:49:52;;;;;;;14.18;7.63;;;;;;;;;;4903509;29;20035;-89
2021/09/05 04:52:18;;;;;;;13.30;7.55;;;;;;;;;;4901470;29;20024;-91
2021/09/05 04:54:44;;;;;;;13.75;7.57;;;;;;;;;;4901414;29;20047;-91
2021/09/05 04:57:11;;;;;;;16.75;8.52;;;;;;;;;;4901774;29;20035;-91
2021/09/05 04:59:37;;;;;;;15.98;7.60;;;;;;;;;;4901874;29;20083;-89
2021/09/05 05:02:03;;;;;;;14.95;7.07;;;;;;;;;;4903552;29;20071;-90
2021/09/05 05:04:29;;;;;;;13.55;7.78;;;;;;;;;;4902912;29;20024;-88
2021/09/05 05:06:55;;;;;;;12.52;6.30;;;;;;;;;;4904219;29;20061;-89
2021/09/05 05:09:21;;;;;;;15.15;8.80;;;;;;;;;;4906441;29;20080;-90
2021/09/05 05:11:48;;;;;;;13.80;8.05;;;;;;;;;;4907953;29;20119;-89
2021/09/05 05:14:14;;;;;;;18.50;8.43;;;;;;;;;;4902218;29;20036;-91
2021/09/05 05:16:40;;;;;;;17.30;9.57;;;;;;;;;;4901828;29;20055;-87
2021/09/05 05:19:07;;;;;;;13.63;7.78;;;;;;;;;;4901546;29;20035;-87
2021/09/05 05:21:33;;;;;;;13.65;8.27;;;;;;;;;;4901700;29;20024;-91
2021/09/05 05:23:59;;;;;;;13.13;8.15;;;;;;;;;;4902845;29;20028;-91
2021/09/05 05:26:27;;;;;;;14.90;9.27;;;;;;;;;;4902156;29;20031;-91
2021/09/05 05:28:54;;;;;;;25.52;11.93;;;;;;;;;;4902328;29;20084;-89
2021/09/05 05:31:20;;;;;;;18.42;10.48;;;;;;;;;;4903031;29;20176;-91
2021/09/05 05:33:46;;;;;;;17.35;9.40;;;;;;;;;;4906278;29;20044;-87
2021/09/05 05:36:12;;;;;;;13.20;8.45;;;;;;;;;;4913424;29;20056;-90
2021/09/05 05:38:40;;;;;;;16.65;9.35;;;;;;;;;;4902512;29;20091;-90
2021/09/05 05:41:06;;;;;;;14.95;9.25;;;;;;;;;;4901851;29;20068;-90
2021/09/05 05:43:35;;;;;;;19.15;9.23;;;;;;;;;;4901428;29;20032;-87
2021/09/05 05:46:02;;;;;;;13.23;8.23;;;;;;;;;;4901523;29;20028;-91
2021/09/05 05:48:28;;;;;;;14.32;8.70;;;;;;;;;;4901879;29;20032;-89
2021/09/05 05:50:54;;;;;;;12.82;7.85;;;;;;;;;;4902158;29;20032;-91
2021/09/05 05:53:21;;;;;;;13.50;6.90;;;;;;;;;;4901381;29;20036;-91
2021/09/05 05:55:47;;;;;;;10.45;6.35;;;;;;;;;;4902907;29;20024;-91
2021/09/05 05:58:13;;;;;;;11.18;6.05;;;;;;;;;;4901579;29;20039;-93
2021/09/05 06:00:41;;;;;;;8.77;5.35;;;;;;;;;;4902791;29;20092;-92
2021/09/05 06:03:08;;;;;;;9.40;5.13;;;;;;;;;;4902073;29;20032;-92
2021/09/05 06:05:34;;;;;;;9.68;4.50;;;;;;;;;;4901703;29;20028;-92
2021/09/05 06:08:03;;;;;;;6.85;3.80;;;;;;;;;;4901952;29;20056;-88
2021/09/05 06:10:30;;;;;;;9.00;4.78;;;;;;;;;;4901679;29;20068;-92
2021/09/05 06:12:56;;;;;;;9.40;4.70;;;;;;;;;;4901638;29;20111;-90
2021/09/05 06:15:23;;;;;;;7.70;4.47;;;;;;;;;;4901483;29;20025;-88
2021/09/05 06:17:49;;;;;;;9.43;5.13;;;;;;;;;;4902012;29;20032;-91
2021/09/05 06:20:16;;;;;;;9.40;5.43;;;;;;;;;;4908304;29;20028;-88
2021/09/05 06:22:42;;;;;;;9.60;5.68;;;;;;;;;;4914519;29;20055;-93
2021/09/05 06:25:08;;;;;;;13.07;5.40;;;;;;;;;;4916247;29;20568;-90
2021/09/05 06:27:35;;;;;;;12.63;5.72;;;;;;;;;;4908535;29;20465;-89
2021/09/05 06:30:01;;;;;;;9.32;5.93;;;;;;;;;;4904762;29;20076;-93
2021/09/05 06:32:27;;;;;;;12.50;5.80;;;;;;;;;;4904484;29;20126;-92
2021/09/05 06:34:54;;;;;;;9.35;6.15;;;;;;;;;;4905562;29;20055;-92
2021/09/05 06:37:20;;;;;;;11.18;6.10;;;;;;;;;;4905432;29;20035;-92
2021/09/05 06:39:46;;;;;;;10.02;5.90;;;;;;;;;;4904440;29;20150;-94
2021/09/05 06:42:12;;;;;;;9.00;5.75;;;;;;;;;;4905258;29;20020;-94
2021/09/05 06:44:39;;;;;;;9.48;5.82;;;;;;;;;;4904901;29;20024;-93
2021/09/05 06:47:05;;;;;;;9.93;5.82;;;;;;;;;;4909698;29;20032;-94
2021/09/05 06:49:31;;;;;;;9.48;5.72;;;;;;;;;;4904121;29;20087;-94
2021/09/05 06:52:06;;;;;;;7.18;4.68;;;;;;;;;;4904942;29;20062;-94
2021/09/05 06:54:32;;;;;;;9.10;5.20;;;;;;;;;;4904310;29;20059;-93
2021/09/05 06:56:58;;;;;;;9.25;5.70;;;;;;;;;;4904168;29;20024;-93
2021/09/05 06:59:25;;;;;;;10.80;5.90;;;;;;;;;;4906215;29;20028;-92
2021/09/05 07:01:53;;;;;;;9.98;5.80;;;;;;;;;;4904139;29;20470;-93
2021/09/05 07:04:19;;;;;;;9.65;5.53;;;;;;;;;;4904029;29;20609;-93
2021/09/05 07:06:46;;;;;;;10.40;5.75;;;;;;;;;;4906664;29;20131;-91
2021/09/05 07:09:16;;;;;;;10.07;5.20;;;;;;;;;;4906021;29;20029;-94
2021/09/05 07:11:42;;;;;;;8.40;5.63;;;;;;;;;;4903664;29;20043;-91
2021/09/05 07:14:08;;;;;;;10.32;5.13;;;;;;;;;;4903718;29;20047;-92
2021/09/05 07:16:34;;;;;;;8.48;5.45;;;;;;;;;;4905162;29;20028;-94
2021/09/05 07:19:00;;;;;;;10.70;5.90;;;;;;;;;;4903799;29;20091;-91
2021/09/05 07:21:26;;;;;;;8.10;4.75;;;;;;;;;;4903811;29;20046;-94
2021/09/05 07:23:53;;;;;;;8.48;5.13;;;;;;;;;;4903504;29;20481;-92
2021/09/05 07:26:19;;;;;;;10.95;5.10;;;;;;;;;;4903637;29;20024;-93
2021/09/05 07:28:45;;;;;;;12.45;6.15;;;;;;;;;;4903986;29;20545;-92
2021/09/05 07:31:11;;;;;;;9.18;5.05;;;;;;;;;;4922173;29;20107;-91
2021/09/05 07:33:38;;;;;;;11.65;4.85;;;;;;;;;;4911072;29;20036;-90
2021/09/05 07:36:04;;;;;;;10.25;5.55;;;;;;;;;;4903331;29;20454;-89
2021/09/05 07:38:30;;;;;;;8.00;5.20;;;;;;;;;;4905165;29;20488;-90
2021/09/05 07:40:56;;;;;;;8.52;5.25;;;;;;;;;;4903176;29;20082;-90
2021/09/05 07:43:22;;;;;;;10.05;5.70;;;;;;;;;;4903373;29;20024;-92
2021/09/05 07:45:49;;;;;;;10.07;5.43;;;;;;;;;;4904192;29;20024;-88
2021/09/05 07:48:15;;;;;;;11.23;5.78;;;;;;;;;;4904020;29;20060;-90
2021/09/05 07:50:42;;;;;;;9.60;5.43;;;;;;;;;;4903113;29;20085;-90
2021/09/05 07:53:08;;;;;;;9.77;5.85;;;;;;;;;;4907611;29;20496;-89
2021/09/05 07:55:34;;;;;;;8.73;6.05;;;;;;;;;;4903419;29;20033;-92
2021/09/05 07:58:00;;;;;;;11.93;5.80;;;;;;;;;;4902778;29;20036;-90
2021/09/05 08:00:27;;;;;;;9.98;5.38;;;;;;;;;;4903437;29;20036;-92
2021/09/05 08:02:53;;;;;;;8.75;5.60;;;;;;;;;;4903617;29;20039;-90
2021/09/05 08:05:20;;;;;;;8.95;5.60;;;;;;;;;;4903461;29;20505;-90
2021/09/05 08:07:46;;;;;;;9.57;5.78;;;;;;;;;;4902987;29;20512;-89
2021/09/05 08:10:12;;;;;;;10.57;5.40;;;;;;;;;;4904108;29;20024;-90
2021/09/05 08:12:38;;;;;;;16.02;5.88;;;;;;;;;;4902608;29;20155;-91
2021/09/05 08:15:05;;;;;;;8.50;5.38;;;;;;;;;;4902515;29;20393;-90
2021/09/05 08:17:31;;;;;;;10.38;5.68;;;;;;;;;;4902494;29;20021;-89
2021/09/05 08:19:57;;;;;;;10.32;5.53;;;;;;;;;;4902764;29;20078;-93
2021/09/05 08:22:23;;;;;;;10.90;5.82;;;;;;;;;;4902860;29;20111;-90
2021/09/05 08:24:50;;;;;;;10.52;5.78;;;;;;;;;;4904176;29;20032;-92
2021/09/05 08:27:16;;;;;;;9.90;5.85;;;;;;;;;;4903463;29;20032;-89
2021/09/05 08:29:42;;;;;;;8.23;5.18;;;;;;;;;;4904494;29;20119;-90
2021/09/05 08:32:08;;;;;;;11.40;5.72;;;;;;;;;;4902910;29;20024;-89
2021/09/05 08:34:35;;;;;;;8.88;5.47;;;;;;;;;;4902238;29;20032;-89
2021/09/05 08:37:02;;;;;;;13.25;5.95;;;;;;;;;;4902369;29;20509;-89
2021/09/05 08:39:28;;;;;;;11.82;5.60;;;;;;;;;;4901929;29;20048;-92
2021/09/05 08:41:55;;;;;;;9.07;5.25;;;;;;;;;;4902052;29;20039;-89
2021/09/05 08:44:21;;;;;;;8.55;5.85;;;;;;;;;;4901945;29;20024;-89
2021/09/05 08:46:48;;;;;;;11.18;5.55;;;;;;;;;;4902583;29;20080;-92
2021/09/05 08:49:18;;;;;;;7.95;5.40;;;;;;;;;;4905689;29;20020;-92
2021/09/05 08:51:44;;;;;;;13.52;6.30;;;;;;;;;;4902332;29;20031;-88
2021/09/05 08:54:10;;;;;;;9.80;5.85;;;;;;;;;;4903886;29;20032;-92
2021/09/05 08:56:37;;;;;;;10.75;5.43;;;;;;;;;;4901717;29;20035;-87
2021/09/05 08:59:03;;;;;;;12.90;5.50;;;;;;;;;;4902109;29;20036;-92
2021/09/05 09:01:30;;;;;;;11.93;5.15;;;;;;;;;;4901882;29;20034;-92
2021/09/05 09:04:06;;;;;;;11.38;5.80;;;;;;;;;;4901922;29;20153;-93
2021/09/05 09:06:36;;;;;;;8.30;5.10;;;;;;;;;;4901907;29;20386;-92
2021/09/05 09:09:04;;;;;;;8.48;5.22;;;;;;;;;;4904470;29;20393;-92
2021/09/05 09:11:50;;;;;;;9.32;5.35;;;;;;;;;;4901502;29;20028;-88
2021/09/05 09:14:17;;;;;;;9.10;5.03;;;;;;;;;;4918098;29;20068;-89
2021/09/05 09:16:43;;;;;;;10.20;4.97;;;;;;;;;;4901724;29;20405;-89
2021/09/05 09:19:21;;;;;;;9.70;4.90;;;;;;;;;;4901626;29;20028;-91
2021/09/05 09:21:47;;;;;;;7.38;4.75;;;;;;;;;;4906155;29;20131;-93
2021/09/05 09:24:17;;;;;;;7.57;5.15;;;;;;;;;;4918212;29;20063;-90
2021/09/05 09:27:02;;;;;;;9.05;4.88;;;;;;;;;;4918211;29;20111;-89
2021/09/05 09:29:28;;;;;;;7.95;4.82;;;;;;;;;;4898994;29;20111;-89
2021/09/05 09:31:59;;;;;;;7.95;4.65;;;;;;;;;;4901807;29;20471;-89
2021/09/05 09:34:25;;;;;;;8.63;4.93;;;;;;;;;;4901581;29;20044;-90
2021/09/05 09:36:58;;;;;;;7.30;4.32;;;;;;;;;;4900655;29;20123;-91
2021/09/05 09:39:27;;;;;;;7.82;4.90;;;;;;;;;;4901470;29;20532;-93
2021/09/05 09:41:54;;;;;;;7.03;4.40;;;;;;;;;;4901398;29;20020;-92
2021/09/05 09:44:20;;;;;;;6.50;4.35;;;;;;;;;;4901757;29;20036;-92
2021/09/05 09:46:46;;;;;;;12.10;4.38;;;;;;;;;;4901544;29;20021;-92
2021/09/05 09:49:14;;;;;;;8.45;4.35;;;;;;;;;;4901465;29;20035;-91
2021/09/05 09:51:41;;;;;;;6.82;4.00;;;;;;;;;;4901806;29;20060;-93
2021/09/05 09:54:08;;;;;;;6.53;4.20;;;;;;;;;;4901267;29;20036;-86
2021/09/05 09:56:34;;;;;;;6.60;4.07;;;;;;;;;;4905021;29;20028;-87
2021/09/05 09:59:02;;;;;;;7.40;4.80;;;;;;;;;;4904707;29;20036;-87
2021/09/05 10:01:29;;;;;;;6.78;4.07;;;;;;;;;;4904625;29;20450;-86
2021/09/05 10:03:57;;;;;;;10.10;5.30;;;;;;;;;;4904656;29;20055;-87
2021/09/05 10:06:28;;;;;;;6.30;4.32;;;;;;;;;;4904705;29;20028;-86
2021/09/05 10:08:56;;;;;;;7.63;4.28;;;;;;;;;;4904410;29;20034;-87
2021/09/05 10:11:23;;;;;;;7.70;4.25;;;;;;;;;;4921542;29;20024;-87
2021/09/05 10:13:49;;;;;;;8.40;5.00;;;;;;;;;;4904414;29;20176;-87
2021/09/05 10:16:16;;;;;;;6.90;4.20;;;;;;;;;;4904607;29;20469;-87
2021/09/05 10:18:44;;;;;;;7.45;4.53;;;;;;;;;;4904357;29;20031;-88
2021/09/05 10:21:11;;;;;;;13.05;4.13;;;;;;;;;;4904166;29;20122;-86
2021/09/05 10:23:37;;;;;;;7.47;4.55;;;;;;;;;;4904188;29;20172;-86
2021/09/05 10:26:05;;;;;;;6.60;4.20;;;;;;;;;;4904118;29;20028;-86
2021/09/05 10:28:32;;;;;;;5.85;4.05;;;;;;;;;;4904211;29;20548;-87
2021/09/05 10:31:00;;;;;;;8.70;4.50;;;;;;;;;;4904184;29;20032;-86
2021/09/05 10:33:39;;;;;;;6.65;4.30;;;;;;;;;;4904165;29;20129;-86
2021/09/05 10:36:09;;;;;;;8.75;4.90;;;;;;;;;;4904038;29;20027;-86
2021/09/05 10:38:37;;;;;;;6.95;4.07;;;;;;;;;;4904109;29;20024;-86
2021/09/05 10:41:07;;;;;;;7.75;4.65;;;;;;;;;;4903723;29;20049;-86
2021/09/05 10:43:48;;;;;;;8.20;4.70;;;;;;;;;;4903948;29;20036;-86
2021/09/05 10:46:35;;;;;;;7.05;4.20;;;;;;;;;;4903757;29;20092;-86
2021/09/05 10:49:02;;;;;;;8.25;4.30;;;;;;;;;;4894056;29;20039;-86
2021/09/05 10:51:34;;;;;;;8.02;4.38;;;;;;;;;;4903897;29;20052;-86
2021/09/05 10:54:03;;;;;;;9.85;4.78;;;;;;;;;;4903510;29;20040;-86
2021/09/05 10:56:45;;;;;;;10.00;5.13;;;;;;;;;;4903743;29;20127;-86
2021/09/05 10:59:14;;;;;;;6.85;4.53;;;;;;;;;;4903612;29;20028;-86
2021/09/05 11:01:41;;;;;;;7.60;4.38;;;;;;;;;;4903419;29;20039;-86
2021/09/05 11:04:14;;;;;;;7.07;4.55;;;;;;;;;;4903679;29;20156;-86
2021/09/05 11:06:40;;;;;;;8.20;4.60;;;;;;;;;;4902952;29;20481;-86
2021/09/05 11:09:19;;;;;;;8.40;4.47;;;;;;;;;;4920841;29;20047;-92
2021/09/05 11:12:04;;;;;;;6.47;4.68;;;;;;;;;;4903916;29;20064;-90
2021/09/05 11:17:12;;;;;;;9.02;4.57;;;;;;;;;;4921343;29;20036;-89
2021/09/05 11:19:45;;;;;;;10.35;4.28;;;;;;;;;;4904226;29;20047;-89
2021/09/05 11:22:12;;;;;;;8.32;4.70;;;;;;;;;;4903726;29;20031;-90
2021/09/05 11:24:39;;;;;;;12.18;4.57;;;;;;;;;;4904018;29;20042;-91
2021/09/05 11:27:07;;;;;;;9.23;5.53;;;;;;;;;;4920477;29;20469;-93
2021/09/05 11:29:33;;;;;;;11.80;4.93;;;;;;;;;;4903429;29;20028;-92
2021/09/05 11:32:00;;;;;;;10.40;4.88;;;;;;;;;;4904417;29;20051;-92
2021/09/05 11:34:26;;;;;;;7.47;4.72;;;;;;;;;;4903428;29;20036;-92
2021/09/05 11:36:53;;;;;;;8.55;4.68;;;;;;;;;;4903307;29;20024;-87
2021/09/05 11:39:19;;;;;;;10.82;5.03;;;;;;;;;;4903057;29;20052;-90
2021/09/05 11:41:45;;;;;;;8.80;4.03;;;;;;;;;;4903351;29;20029;-89
2021/09/05 11:44:11;;;;;;;8.05;4.45;;;;;;;;;;4903190;29;20032;-89
2021/09/05 11:46:37;;;;;;;9.40;4.78;;;;;;;;;;4902760;29;20513;-87
2021/09/05 11:49:04;;;;;;;8.30;5.05;;;;;;;;;;4902948;29;20063;-90
2021/09/05 11:51:31;;;;;;;13.00;4.95;;;;;;;;;;4902887;29;20497;-87
2021/09/05 11:54:00;;;;;;;8.10;4.03;;;;;;;;;;4902912;29;20074;-89
2021/09/05 11:56:30;;;;;;;7.85;4.13;;;;;;;;;;4903785;29;20028;-89
2021/09/05 11:58:56;;;;;;;10.10;4.97;;;;;;;;;;4904352;29;20489;-91
2021/09/05 12:01:22;;;;;;;10.50;4.55;;;;;;;;;;4902946;29;20060;-88
2021/09/05 12:03:49;;;;;;;9.52;4.53;;;;;;;;;;4920236;29;20036;-89
2021/09/05 12:06:15;;;;;;;6.75;4.30;;;;;;;;;;4903039;29;20028;-91
2021/09/05 12:08:45;;;;;;;7.22;4.07;;;;;;;;;;4920533;29;20032;-89
2021/09/05 12:11:12;;;;;;;11.23;4.78;;;;;;;;;;4903688;29;20430;-89
2021/09/05 12:13:51;;;;;;;9.52;4.45;;;;;;;;;;4902639;29;20064;-90
2021/09/05 12:16:23;;;;;;;9.38;4.57;;;;;;;;;;4902416;29;20031;-87
2021/09/05 12:18:59;;;;;;;9.00;4.47;;;;;;;;;;4901967;29;20035;-90
2021/09/05 12:21:29;;;;;;;8.43;4.10;;;;;;;;;;4902434;29;20276;-86
2021/09/05 12:23:55;;;;;;;8.50;4.43;;;;;;;;;;4919015;29;20465;-88
2021/09/05 12:26:21;;;;;;;10.70;4.45;;;;;;;;;;4903484;29;20078;-87
2021/09/05 12:29:01;;;;;;;10.77;5.22;;;;;;;;;;4903421;29;20036;-85
2021/09/05 12:31:46;;;;;;;8.88;4.75;;;;;;;;;;4902181;29;20087;-88
2021/09/05 12:34:31;;;;;;;7.88;4.70;;;;;;;;;;4901967;29;20035;-90
2021/09/05 12:36:59;;;;;;;9.68;5.28;;;;;;;;;;4918792;29;20035;-90
2021/09/05 12:39:26;;;;;;;8.85;5.07;;;;;;;;;;4902180;29;20048;-90
2021/09/05 12:42:06;;;;;;;9.13;4.95;;;;;;;;;;4901811;29;20032;-89
2021/09/05 12:44:39;;;;;;;8.57;4.75;;;;;;;;;;4902241;29;20084;-93
2021/09/05 12:47:06;;;;;;;10.98;5.47;;;;;;;;;;4901876;29;20462;-92
2021/09/05 12:49:38;;;;;;;10.18;5.07;;;;;;;;;;4920114;29;20039;-92
2021/09/05 12:52:06;;;;;;;9.85;5.20;;;;;;;;;;4901797;29;20028;-93
2021/09/05 12:54:39;;;;;;;10.30;5.22;;;;;;;;;;4901785;29;20124;-91
2021/09/05 12:57:06;;;;;;;9.02;5.00;;;;;;;;;;4902350;29;20028;-92
2021/09/05 12:59:33;;;;;;;8.95;5.30;;;;;;;;;;4903481;29;20564;-92
2021/09/05 13:01:59;;;;;;;9.40;5.13;;;;;;;;;;4901900;29;20473;-92
2021/09/05 13:04:25;;;;;;;8.20;4.78;;;;;;;;;;4903931;29;20393;-89
2021/09/05 13:06:51;;;;;;;10.73;5.07;;;;;;;;;;4902681;29;20052;-90
2021/09/05 13:09:18;;;;;;;9.25;4.78;;;;;;;;;;4902133;29;20489;-92
2021/09/05 13:11:45;;;;;;;9.07;5.10;;;;;;;;;;4901725;29;20029;-92
2021/09/05 13:14:11;;;;;;;10.10;5.60;;;;;;;;;;4899951;29;20033;-91
2021/09/05 13:16:37;;;;;;;9.77;5.38;;;;;;;;;;4898435;29;20043;-91
2021/09/05 13:19:03;;;;;;;9.15;5.32;;;;;;;;;;4898679;29;20119;-93
2021/09/05 13:21:36;;;;;;;7.20;4.53;;;;;;;;;;4902152;29;20032;-88
2021/09/05 13:24:02;;;;;;;9.05;5.15;;;;;;;;;;4901923;29;20079;-90
2021/09/05 13:26:29;;;;;;;9.10;5.07;;;;;;;;;;4899823;29;20462;-92
2021/09/05 13:28:56;;;;;;;14.23;5.20;;;;;;;;;;4901795;29;20040;-92
2021/09/05 13:31:24;;;;;;;8.70;4.78;;;;;;;;;;4901482;29;20039;-93
2021/09/05 13:33:50;;;;;;;7.93;4.45;;;;;;;;;;4901486;29;20036;-92
2021/09/05 13:36:17;;;;;;;8.90;5.00;;;;;;;;;;4907139;29;20032;-90
2021/09/05 13:38:43;;;;;;;9.40;4.65;;;;;;;;;;4906874;29;20043;-91
2021/09/05 13:41:09;;;;;;;8.10;4.80;;;;;;;;;;4902306;29;20052;-91
2021/09/05 13:43:35;;;;;;;9.20;4.97;;;;;;;;;;4901980;29;20063;-91
2021/09/05 13:46:01;;;;;;;12.07;4.82;;;;;;;;;;4902523;29;20035;-90
2021/09/05 13:48:27;;;;;;;7.38;4.40;;;;;;;;;;4907598;29;20031;-91
2021/09/05 13:50:54;;;;;;;9.13;5.45;;;;;;;;;;4920365;29;20393;-92
2021/09/05 13:53:20;;;;;;;8.52;4.78;;;;;;;;;;4920447;29;20032;-91
2021/09/05 13:55:46;;;;;;;9.82;4.88;;;;;;;;;;4920284;29;20032;-92
2021/09/05 13:58:16;;;;;;;8.93;4.95;;;;;;;;;;4920526;29;20095;-91
2021/09/05 14:00:42;;;;;;;7.20;4.30;;;;;;;;;;4900656;29;20401;-92
2021/09/05 14:03:10;;;;;;;8.82;4.90;;;;;;;;;;4901934;29;20404;-90
2021/09/05 14:05:36;;;;;;;10.05;5.10;;;;;;;;;;4904756;29;20512;-91
2021/09/05 14:08:03;;;;;;;14.57;5.35;;;;;;;;;;4903242;29;20461;-93
2021/09/05 14:10:29;;;;;;;10.13;5.10;;;;;;;;;;4901340;29;20032;-92
2021/09/05 14:12:55;;;;;;;9.98;5.05;;;;;;;;;;4901991;29;20139;-92
2021/09/05 14:15:21;;;;;;;9.23;5.15;;;;;;;;;;4902612;29;20404;-93
2021/09/05 14:17:47;;;;;;;13.85;4.72;;;;;;;;;;4902004;29;20043;-92
2021/09/05 14:20:13;;;;;;;9.25;4.97;;;;;;;;;;4901301;29;20024;-92
2021/09/05 14:22:40;;;;;;;10.55;5.05;;;;;;;;;;4901646;29;20039;-92
2021/09/05 14:25:07;;;;;;;8.10;4.55;;;;;;;;;;4900920;29;20031;-92
2021/09/05 14:27:43;;;;;;;7.95;4.82;;;;;;;;;;4901055;29;20029;-92
2021/09/05 14:30:16;;;;;;;8.73;4.35;;;;;;;;;;4902656;29;20123;-92
2021/09/05 14:35:25;;;;;;;8.05;4.45;;;;;;;;;;4904330;29;20528;-92
2021/09/05 14:49:00;;;;;;;8.27;4.70;;;;;;;;;;4923567;29;20043;-91
2021/09/05 14:54:22;;;;;;;14.88;4.97;;;;;;;;;;4920987;29;20082;-91
2021/09/05 14:56:48;;;;;;;7.85;4.68;;;;;;;;;;4905308;29;20052;-91